sensor_id;sensor_type;location;lat;lon;timestamp;P1;durP1;ratioP1;P2;durP2;ratioP2
36653;SDS011;22650;49.350;20.898;2023-12-07T00:01:40;1987.38;;;999.90;;
36653;SDS011;22650;49.350;20.898;2023-12-07T00:04:14;1921.00;;;999.90;;
36653;SDS011;22650;49.350;20.898;2023-12-07T00:06:48;1832.13;;;999.90;;
36653;SDS011;22650;49.350;20.898;2023-12-07T00:09:23;1771.55;;;999.90;;
36653;SDS011;22650;49.350;20.898;2023-12-07T00:11:56;1868.80;;;999.90;;
36653;SDS011;22650;49.350;20.898;2023-12-07T00:14:30;1831.10;;;999.90;;
36653;SDS011;22650;49.350;20.898;2023-12-07T00:17:03;1812.88;;;999.90;;
36653;SDS011;22650;49.350;20.898;2023-12-07T00:19:37;1806.78;;;999.90;;
36653;SDS011;22650;49.350;20.898;2023-12-07T00:22:11;1859.68;;;999.90;;
36653;SDS011;22650;49.350;20.898;2023-12-07T00:24:46;1879.38;;;999.90;;
36653;SDS011;22650;49.350;20.898;2023-12-07T00:27:20;1763.65;;;999.90;;
36653;SDS011;22650;49.350;20.898;2023-12-07T00:29:54;1913.45;;;999.90;;
36653;SDS011;22650;49.350;20.898;2023-12-07T00:32:27;1814.85;;;999.90;;
36653;SDS011;22650;49.350;20.898;2023-12-07T00:35:01;1662.25;;;999.90;;
36653;SDS011;22650;49.350;20.898;2023-12-07T00:37:35;1828.82;;;999.90;;
36653;SDS011;22650;49.350;20.898;2023-12-07T00:40:10;1921.93;;;999.90;;
36653;SDS011;22650;49.350;20.898;2023-12-07T00:42:45;1787.95;;;999.90;;
36653;SDS011;22650;49.350;20.898;2023-12-07T00:45:19;1952.40;;;999.90;;
36653;SDS011;22650;49.350;20.898;2023-12-07T00:47:52;1881.60;;;999.90;;
36653;SDS011;22650;49.350;20.898;2023-12-07T00:50:26;1882.55;;;999.90;;
36653;SDS011;22650;49.350;20.898;2023-12-07T00:52:59;1849.10;;;999.90;;
36653;SDS011;22650;49.350;20.898;2023-12-07T00:55:34;1838.85;;;999.90;;
36653;SDS011;22650;49.350;20.898;2023-12-07T00:58:08;1999.90;;;999.90;;
36653;SDS011;22650;49.350;20.898;2023-12-07T01:00:42;1820.13;;;999.90;;
36653;SDS011;22650;49.350;20.898;2023-12-07T01:03:16;1985.22;;;999.90;;
36653;SDS011;22650;49.350;20.898;2023-12-07T01:05:49;1801.05;;;999.90;;
36653;SDS011;22650;49.350;20.898;2023-12-07T01:08:23;1996.10;;;999.90;;
36653;SDS011;22650;49.350;20.898;2023-12-07T01:10:58;1965.20;;;999.90;;
36653;SDS011;22650;49.350;20.898;2023-12-07T01:13:31;1950.05;;;999.90;;
36653;SDS011;22650;49.350;20.898;2023-12-07T01:16:05;1990.93;;;999.90;;
36653;SDS011;22650;49.350;20.898;2023-12-07T01:18:39;1951.32;;;999.90;;
36653;SDS011;22650;49.350;20.898;2023-12-07T01:21:13;1922.95;;;999.90;;
36653;SDS011;22650;49.350;20.898;2023-12-07T01:23:46;1945.70;;;999.90;;
36653;SDS011;22650;49.350;20.898;2023-12-07T01:26:31;1755.10;;;999.90;;
36653;SDS011;22650;49.350;20.898;2023-12-07T01:29:05;1779.35;;;999.90;;
36653;SDS011;22650;49.350;20.898;2023-12-07T01:31:39;1840.53;;;999.90;;
36653;SDS011;22650;49.350;20.898;2023-12-07T01:34:13;1651.03;;;999.90;;
36653;SDS011;22650;49.350;20.898;2023-12-07T01:36:46;1846.93;;;999.90;;
36653;SDS011;22650;49.350;20.898;2023-12-07T01:39:20;1782.65;;;999.90;;
36653;SDS011;22650;49.350;20.898;2023-12-07T01:41:55;1951.20;;;999.90;;
36653;SDS011;22650;49.350;20.898;2023-12-07T01:44:29;1745.63;;;999.90;;
36653;SDS011;22650;49.350;20.898;2023-12-07T01:47:03;1805.68;;;999.90;;
36653;SDS011;22650;49.350;20.898;2023-12-07T01:49:39;1744.53;;;999.90;;
36653;SDS011;22650;49.350;20.898;2023-12-07T01:52:13;1886.80;;;999.90;;
36653;SDS011;22650;49.350;20.898;2023-12-07T01:54:47;1651.10;;;999.90;;
36653;SDS011;22650;49.350;20.898;2023-12-07T01:57:23;1792.63;;;999.90;;
36653;SDS011;22650;49.350;20.898;2023-12-07T01:59:57;1709.05;;;999.90;;
36653;SDS011;22650;49.350;20.898;2023-12-07T02:02:31;1515.20;;;999.90;;
36653;SDS011;22650;49.350;20.898;2023-12-07T02:05:05;1608.97;;;999.90;;
36653;SDS011;22650;49.350;20.898;2023-12-07T02:07:40;1679.93;;;999.90;;
36653;SDS011;22650;49.350;20.898;2023-12-07T02:10:14;1628.28;;;999.90;;
36653;SDS011;22650;49.350;20.898;2023-12-07T02:12:49;1586.78;;;999.90;;
36653;SDS011;22650;49.350;20.898;2023-12-07T02:15:24;1585.88;;;999.90;;
36653;SDS011;22650;49.350;20.898;2023-12-07T02:18:01;1505.70;;;999.90;;
36653;SDS011;22650;49.350;20.898;2023-12-07T02:20:41;1461.32;;;999.90;;
36653;SDS011;22650;49.350;20.898;2023-12-07T02:23:19;1292.75;;;998.72;;
36653;SDS011;22650;49.350;20.898;2023-12-07T02:26:22;1302.47;;;999.90;;
36653;SDS011;22650;49.350;20.898;2023-12-07T02:29:01;1295.43;;;999.90;;
36653;SDS011;22650;49.350;20.898;2023-12-07T02:31:35;1403.20;;;999.90;;
36653;SDS011;22650;49.350;20.898;2023-12-07T02:34:08;1547.03;;;999.90;;
36653;SDS011;22650;49.350;20.898;2023-12-07T02:36:43;1444.38;;;999.90;;
36653;SDS011;22650;49.350;20.898;2023-12-07T02:39:18;1400.05;;;999.90;;
36653;SDS011;22650;49.350;20.898;2023-12-07T02:41:53;1391.78;;;999.90;;
36653;SDS011;22650;49.350;20.898;2023-12-07T02:44:30;1467.38;;;999.90;;
36653;SDS011;22650;49.350;20.898;2023-12-07T02:47:04;1434.93;;;999.90;;
36653;SDS011;22650;49.350;20.898;2023-12-07T02:49:38;1514.85;;;999.90;;
36653;SDS011;22650;49.350;20.898;2023-12-07T02:52:12;1546.65;;;999.90;;
36653;SDS011;22650;49.350;20.898;2023-12-07T02:54:46;1452.65;;;999.20;;
36653;SDS011;22650;49.350;20.898;2023-12-07T02:57:19;1459.35;;;999.90;;
36653;SDS011;22650;49.350;20.898;2023-12-07T02:59:54;1474.05;;;999.90;;
36653;SDS011;22650;49.350;20.898;2023-12-07T03:02:28;1461.80;;;999.90;;
36653;SDS011;22650;49.350;20.898;2023-12-07T03:05:02;1538.82;;;999.90;;
36653;SDS011;22650;49.350;20.898;2023-12-07T03:07:36;1495.88;;;998.25;;
36653;SDS011;22650;49.350;20.898;2023-12-07T03:10:10;1549.72;;;999.90;;
36653;SDS011;22650;49.350;20.898;2023-12-07T03:12:43;1511.43;;;999.90;;
36653;SDS011;22650;49.350;20.898;2023-12-07T03:15:18;1537.57;;;999.90;;
36653;SDS011;22650;49.350;20.898;2023-12-07T03:17:52;1573.38;;;999.90;;
36653;SDS011;22650;49.350;20.898;2023-12-07T03:20:26;1503.68;;;999.90;;
36653;SDS011;22650;49.350;20.898;2023-12-07T03:22:59;1346.18;;;999.90;;
36653;SDS011;22650;49.350;20.898;2023-12-07T03:25:33;1479.57;;;999.90;;
36653;SDS011;22650;49.350;20.898;2023-12-07T03:28:07;1537.10;;;999.90;;
36653;SDS011;22650;49.350;20.898;2023-12-07T03:30:42;1517.93;;;999.90;;
36653;SDS011;22650;49.350;20.898;2023-12-07T03:33:16;1447.90;;;999.90;;
36653;SDS011;22650;49.350;20.898;2023-12-07T03:35:49;1401.13;;;999.90;;
36653;SDS011;22650;49.350;20.898;2023-12-07T03:38:23;1434.75;;;999.90;;
36653;SDS011;22650;49.350;20.898;2023-12-07T03:40:57;1436.90;;;999.90;;
36653;SDS011;22650;49.350;20.898;2023-12-07T03:43:30;1469.40;;;999.90;;
36653;SDS011;22650;49.350;20.898;2023-12-07T03:46:05;1317.13;;;999.90;;
36653;SDS011;22650;49.350;20.898;2023-12-07T03:48:40;1367.25;;;999.90;;
36653;SDS011;22650;49.350;20.898;2023-12-07T03:51:14;1338.85;;;999.90;;
36653;SDS011;22650;49.350;20.898;2023-12-07T03:53:48;1277.63;;;999.90;;
36653;SDS011;22650;49.350;20.898;2023-12-07T03:56:24;1347.03;;;999.90;;
36653;SDS011;22650;49.350;20.898;2023-12-07T03:58:58;1357.72;;;999.90;;
36653;SDS011;22650;49.350;20.898;2023-12-07T04:01:33;1314.53;;;999.90;;
36653;SDS011;22650;49.350;20.898;2023-12-07T04:04:07;1325.38;;;999.90;;
36653;SDS011;22650;49.350;20.898;2023-12-07T04:06:41;1369.38;;;999.90;;
36653;SDS011;22650;49.350;20.898;2023-12-07T04:09:14;1309.10;;;999.90;;
36653;SDS011;22650;49.350;20.898;2023-12-07T04:11:48;1312.15;;;999.90;;
36653;SDS011;22650;49.350;20.898;2023-12-07T04:14:21;1327.75;;;992.63;;
36653;SDS011;22650;49.350;20.898;2023-12-07T04:16:56;1367.68;;;997.78;;
36653;SDS011;22650;49.350;20.898;2023-12-07T04:19:30;1448.18;;;999.90;;
36653;SDS011;22650;49.350;20.898;2023-12-07T04:22:03;1383.45;;;999.90;;
36653;SDS011;22650;49.350;20.898;2023-12-07T04:24:37;1393.25;;;999.90;;
36653;SDS011;22650;49.350;20.898;2023-12-07T04:27:12;1255.18;;;999.90;;
36653;SDS011;22650;49.350;20.898;2023-12-07T04:29:45;1345.70;;;999.90;;
36653;SDS011;22650;49.350;20.898;2023-12-07T04:32:21;1326.20;;;999.90;;
36653;SDS011;22650;49.350;20.898;2023-12-07T04:34:55;1327.82;;;999.65;;
36653;SDS011;22650;49.350;20.898;2023-12-07T04:37:29;1356.38;;;999.90;;
36653;SDS011;22650;49.350;20.898;2023-12-07T04:40:02;1365.88;;;999.90;;
36653;SDS011;22650;49.350;20.898;2023-12-07T04:42:37;1148.28;;;970.40;;
36653;SDS011;22650;49.350;20.898;2023-12-07T04:45:10;1330.45;;;998.05;;
36653;SDS011;22650;49.350;20.898;2023-12-07T04:47:45;1244.78;;;972.20;;
36653;SDS011;22650;49.350;20.898;2023-12-07T04:50:19;1404.68;;;999.90;;
36653;SDS011;22650;49.350;20.898;2023-12-07T04:52:53;1308.18;;;998.97;;
36653;SDS011;22650;49.350;20.898;2023-12-07T04:55:27;1369.82;;;999.90;;
36653;SDS011;22650;49.350;20.898;2023-12-07T04:58:00;1313.80;;;999.22;;
36653;SDS011;22650;49.350;20.898;2023-12-07T05:00:34;1197.28;;;991.30;;
36653;SDS011;22650;49.350;20.898;2023-12-07T05:03:09;1374.28;;;999.90;;
36653;SDS011;22650;49.350;20.898;2023-12-07T05:05:42;1342.20;;;998.25;;
36653;SDS011;22650;49.350;20.898;2023-12-07T05:08:16;1337.90;;;990.60;;
36653;SDS011;22650;49.350;20.898;2023-12-07T05:10:50;1349.53;;;989.88;;
36653;SDS011;22650;49.350;20.898;2023-12-07T05:13:24;1245.07;;;969.70;;
36653;SDS011;22650;49.350;20.898;2023-12-07T05:15:58;1257.55;;;995.00;;
36653;SDS011;22650;49.350;20.898;2023-12-07T05:18:33;1374.90;;;998.08;;
36653;SDS011;22650;49.350;20.898;2023-12-07T05:21:06;1261.40;;;997.03;;
36653;SDS011;22650;49.350;20.898;2023-12-07T05:23:40;1167.22;;;983.50;;
36653;SDS011;22650;49.350;20.898;2023-12-07T05:26:14;1257.95;;;996.33;;
36653;SDS011;22650;49.350;20.898;2023-12-07T05:28:47;1233.30;;;998.55;;
36653;SDS011;22650;49.350;20.898;2023-12-07T05:31:21;1227.57;;;999.90;;
36653;SDS011;22650;49.350;20.898;2023-12-07T05:33:57;1192.90;;;976.33;;
36653;SDS011;22650;49.350;20.898;2023-12-07T05:36:31;1204.88;;;988.85;;
36653;SDS011;22650;49.350;20.898;2023-12-07T05:39:04;1306.13;;;999.90;;
36653;SDS011;22650;49.350;20.898;2023-12-07T05:41:39;1234.72;;;984.50;;
36653;SDS011;22650;49.350;20.898;2023-12-07T05:44:12;1293.22;;;999.90;;
36653;SDS011;22650;49.350;20.898;2023-12-07T05:46:53;1193.65;;;990.35;;
36653;SDS011;22650;49.350;20.898;2023-12-07T05:49:28;1304.25;;;999.90;;
36653;SDS011;22650;49.350;20.898;2023-12-07T05:52:02;1336.40;;;999.90;;
36653;SDS011;22650;49.350;20.898;2023-12-07T05:54:36;1365.45;;;999.90;;
36653;SDS011;22650;49.350;20.898;2023-12-07T05:57:09;1351.10;;;999.90;;
36653;SDS011;22650;49.350;20.898;2023-12-07T05:59:43;1145.05;;;959.70;;
36653;SDS011;22650;49.350;20.898;2023-12-07T06:02:17;1356.07;;;999.90;;
36653;SDS011;22650;49.350;20.898;2023-12-07T06:04:51;1373.35;;;999.90;;
36653;SDS011;22650;49.350;20.898;2023-12-07T06:07:26;1301.25;;;997.45;;
36653;SDS011;22650;49.350;20.898;2023-12-07T06:10:00;1182.00;;;996.38;;
36653;SDS011;22650;49.350;20.898;2023-12-07T06:12:33;1333.43;;;999.90;;
36653;SDS011;22650;49.350;20.898;2023-12-07T06:15:08;1360.40;;;999.90;;
36653;SDS011;22650;49.350;20.898;2023-12-07T06:17:42;1267.43;;;999.90;;
36653;SDS011;22650;49.350;20.898;2023-12-07T06:20:17;1234.40;;;992.00;;
36653;SDS011;22650;49.350;20.898;2023-12-07T06:22:50;1292.63;;;999.15;;
36653;SDS011;22650;49.350;20.898;2023-12-07T06:25:24;1254.45;;;962.53;;
36653;SDS011;22650;49.350;20.898;2023-12-07T06:27:58;1246.13;;;997.78;;
36653;SDS011;22650;49.350;20.898;2023-12-07T06:30:31;1369.38;;;999.90;;
36653;SDS011;22650;49.350;20.898;2023-12-07T06:33:06;1300.20;;;999.90;;
36653;SDS011;22650;49.350;20.898;2023-12-07T06:35:42;1221.93;;;976.92;;
36653;SDS011;22650;49.350;20.898;2023-12-07T06:38:15;1186.40;;;998.42;;
36653;SDS011;22650;49.350;20.898;2023-12-07T06:40:52;1182.43;;;991.10;;
36653;SDS011;22650;49.350;20.898;2023-12-07T06:43:25;1309.03;;;999.90;;
36653;SDS011;22650;49.350;20.898;2023-12-07T06:45:59;1338.35;;;999.90;;
36653;SDS011;22650;49.350;20.898;2023-12-07T06:48:33;1252.15;;;999.90;;
36653;SDS011;22650;49.350;20.898;2023-12-07T06:51:08;1093.80;;;973.22;;
36653;SDS011;22650;49.350;20.898;2023-12-07T06:53:42;1322.68;;;999.90;;
36653;SDS011;22650;49.350;20.898;2023-12-07T06:56:16;1371.35;;;999.90;;
36653;SDS011;22650;49.350;20.898;2023-12-07T06:58:49;1332.40;;;999.90;;
36653;SDS011;22650;49.350;20.898;2023-12-07T07:01:23;1184.22;;;996.35;;
36653;SDS011;22650;49.350;20.898;2023-12-07T07:03:56;1241.07;;;998.13;;
36653;SDS011;22650;49.350;20.898;2023-12-07T07:06:31;1227.43;;;990.05;;
36653;SDS011;22650;49.350;20.898;2023-12-07T07:09:05;1350.93;;;999.90;;
36653;SDS011;22650;49.350;20.898;2023-12-07T07:11:39;1287.55;;;999.90;;
36653;SDS011;22650;49.350;20.898;2023-12-07T07:14:12;1362.15;;;999.90;;
36653;SDS011;22650;49.350;20.898;2023-12-07T07:16:46;1282.85;;;999.90;;
36653;SDS011;22650;49.350;20.898;2023-12-07T07:19:19;1210.25;;;999.67;;
36653;SDS011;22650;49.350;20.898;2023-12-07T07:21:54;1266.82;;;999.90;;
36653;SDS011;22650;49.350;20.898;2023-12-07T07:24:28;1342.90;;;999.90;;
36653;SDS011;22650;49.350;20.898;2023-12-07T07:27:01;1391.32;;;999.90;;
36653;SDS011;22650;49.350;20.898;2023-12-07T07:29:35;1454.93;;;999.90;;
36653;SDS011;22650;49.350;20.898;2023-12-07T07:32:09;1382.53;;;999.90;;
36653;SDS011;22650;49.350;20.898;2023-12-07T07:34:43;1473.35;;;999.90;;
36653;SDS011;22650;49.350;20.898;2023-12-07T07:37:18;1420.25;;;999.90;;
36653;SDS011;22650;49.350;20.898;2023-12-07T07:39:52;1395.40;;;999.90;;
36653;SDS011;22650;49.350;20.898;2023-12-07T07:42:26;1295.53;;;999.90;;
36653;SDS011;22650;49.350;20.898;2023-12-07T07:44:59;1375.63;;;999.90;;
36653;SDS011;22650;49.350;20.898;2023-12-07T07:47:33;1384.85;;;999.90;;
36653;SDS011;22650;49.350;20.898;2023-12-07T07:50:07;1391.00;;;999.90;;
36653;SDS011;22650;49.350;20.898;2023-12-07T07:52:44;1418.13;;;999.90;;
36653;SDS011;22650;49.350;20.898;2023-12-07T07:55:18;1338.90;;;999.90;;
36653;SDS011;22650;49.350;20.898;2023-12-07T07:57:52;1360.45;;;999.90;;
36653;SDS011;22650;49.350;20.898;2023-12-07T08:00:25;1382.13;;;999.90;;
36653;SDS011;22650;49.350;20.898;2023-12-07T08:02:59;1439.78;;;999.90;;
36653;SDS011;22650;49.350;20.898;2023-12-07T08:05:33;1496.93;;;999.90;;
36653;SDS011;22650;49.350;20.898;2023-12-07T08:08:08;1390.25;;;999.90;;
36653;SDS011;22650;49.350;20.898;2023-12-07T08:10:43;1201.22;;;988.05;;
36653;SDS011;22650;49.350;20.898;2023-12-07T08:13:26;1356.60;;;999.90;;
36653;SDS011;22650;49.350;20.898;2023-12-07T08:16:00;1273.50;;;999.90;;
36653;SDS011;22650;49.350;20.898;2023-12-07T08:18:34;1242.68;;;999.90;;
36653;SDS011;22650;49.350;20.898;2023-12-07T08:21:08;1304.63;;;999.90;;
36653;SDS011;22650;49.350;20.898;2023-12-07T08:23:43;1245.85;;;996.33;;
36653;SDS011;22650;49.350;20.898;2023-12-07T08:26:16;1265.80;;;999.90;;
36653;SDS011;22650;49.350;20.898;2023-12-07T08:28:50;1345.57;;;999.90;;
36653;SDS011;22650;49.350;20.898;2023-12-07T08:31:26;1373.40;;;999.90;;
36653;SDS011;22650;49.350;20.898;2023-12-07T08:34:00;1457.28;;;999.90;;
36653;SDS011;22650;49.350;20.898;2023-12-07T08:36:33;1437.10;;;999.90;;
36653;SDS011;22650;49.350;20.898;2023-12-07T08:39:08;1505.82;;;999.90;;
36653;SDS011;22650;49.350;20.898;2023-12-07T08:41:42;1533.30;;;999.90;;
36653;SDS011;22650;49.350;20.898;2023-12-07T08:44:16;1561.88;;;999.90;;
36653;SDS011;22650;49.350;20.898;2023-12-07T08:46:49;1552.60;;;999.90;;
36653;SDS011;22650;49.350;20.898;2023-12-07T08:49:23;1662.47;;;999.90;;
36653;SDS011;22650;49.350;20.898;2023-12-07T08:51:57;1591.00;;;999.90;;
36653;SDS011;22650;49.350;20.898;2023-12-07T08:54:52;1404.25;;;999.90;;
36653;SDS011;22650;49.350;20.898;2023-12-07T08:57:26;1546.10;;;999.90;;
36653;SDS011;22650;49.350;20.898;2023-12-07T09:00:00;1560.97;;;999.90;;
36653;SDS011;22650;49.350;20.898;2023-12-07T09:02:33;1512.28;;;999.90;;
36653;SDS011;22650;49.350;20.898;2023-12-07T09:05:18;1476.93;;;999.90;;
36653;SDS011;22650;49.350;20.898;2023-12-07T09:07:52;1504.50;;;999.90;;
36653;SDS011;22650;49.350;20.898;2023-12-07T09:10:27;1373.78;;;999.90;;
36653;SDS011;22650;49.350;20.898;2023-12-07T09:13:01;1503.05;;;999.90;;
36653;SDS011;22650;49.350;20.898;2023-12-07T09:15:34;1591.78;;;999.90;;
36653;SDS011;22650;49.350;20.898;2023-12-07T09:18:09;1506.75;;;999.90;;
36653;SDS011;22650;49.350;20.898;2023-12-07T09:20:44;1520.57;;;999.90;;
36653;SDS011;22650;49.350;20.898;2023-12-07T09:23:18;1448.20;;;999.90;;
36653;SDS011;22650;49.350;20.898;2023-12-07T09:25:53;1510.80;;;999.90;;
36653;SDS011;22650;49.350;20.898;2023-12-07T09:28:27;1578.65;;;999.90;;
36653;SDS011;22650;49.350;20.898;2023-12-07T09:31:01;1570.20;;;999.90;;
36653;SDS011;22650;49.350;20.898;2023-12-07T09:33:35;1584.75;;;999.90;;
36653;SDS011;22650;49.350;20.898;2023-12-07T09:36:09;1626.43;;;999.90;;
36653;SDS011;22650;49.350;20.898;2023-12-07T09:38:43;1614.10;;;999.90;;
36653;SDS011;22650;49.350;20.898;2023-12-07T09:41:18;1582.53;;;999.90;;
36653;SDS011;22650;49.350;20.898;2023-12-07T09:43:53;1574.60;;;999.90;;
36653;SDS011;22650;49.350;20.898;2023-12-07T09:46:26;1670.30;;;999.90;;
36653;SDS011;22650;49.350;20.898;2023-12-07T09:49:01;1581.38;;;999.90;;
36653;SDS011;22650;49.350;20.898;2023-12-07T09:51:35;1575.75;;;999.90;;
36653;SDS011;22650;49.350;20.898;2023-12-07T09:54:09;1560.55;;;999.90;;
36653;SDS011;22650;49.350;20.898;2023-12-07T09:56:45;1594.65;;;999.90;;
36653;SDS011;22650;49.350;20.898;2023-12-07T09:59:19;1704.22;;;999.90;;
36653;SDS011;22650;49.350;20.898;2023-12-07T10:01:53;1590.32;;;999.90;;
36653;SDS011;22650;49.350;20.898;2023-12-07T10:04:26;1575.47;;;999.90;;
36653;SDS011;22650;49.350;20.898;2023-12-07T10:07:00;1543.07;;;999.90;;
36653;SDS011;22650;49.350;20.898;2023-12-07T10:09:34;1628.45;;;999.90;;
36653;SDS011;22650;49.350;20.898;2023-12-07T10:12:12;1616.82;;;999.90;;
36653;SDS011;22650;49.350;20.898;2023-12-07T10:14:46;1683.55;;;999.90;;
36653;SDS011;22650;49.350;20.898;2023-12-07T10:17:19;1568.07;;;999.90;;
36653;SDS011;22650;49.350;20.898;2023-12-07T10:20:06;1731.95;;;999.90;;
36653;SDS011;22650;49.350;20.898;2023-12-07T10:22:41;1530.75;;;999.90;;
36653;SDS011;22650;49.350;20.898;2023-12-07T10:25:15;1583.85;;;999.90;;
36653;SDS011;22650;49.350;20.898;2023-12-07T10:27:55;1575.40;;;999.90;;
36653;SDS011;22650;49.350;20.898;2023-12-07T10:30:29;1574.88;;;999.90;;
36653;SDS011;22650;49.350;20.898;2023-12-07T10:33:03;1654.10;;;999.90;;
36653;SDS011;22650;49.350;20.898;2023-12-07T10:35:39;1494.80;;;999.90;;
36653;SDS011;22650;49.350;20.898;2023-12-07T10:38:13;1535.15;;;999.90;;
36653;SDS011;22650;49.350;20.898;2023-12-07T10:40:47;1552.22;;;999.90;;
36653;SDS011;22650;49.350;20.898;2023-12-07T10:43:25;1559.68;;;999.90;;
36653;SDS011;22650;49.350;20.898;2023-12-07T10:45:58;1496.45;;;999.90;;
36653;SDS011;22650;49.350;20.898;2023-12-07T10:48:32;1504.00;;;999.90;;
36653;SDS011;22650;49.350;20.898;2023-12-07T10:51:08;1550.07;;;999.90;;
36653;SDS011;22650;49.350;20.898;2023-12-07T10:53:43;1498.32;;;999.90;;
36653;SDS011;22650;49.350;20.898;2023-12-07T10:56:20;1570.57;;;999.90;;
36653;SDS011;22650;49.350;20.898;2023-12-07T10:59:00;1514.18;;;999.90;;
36653;SDS011;22650;49.350;20.898;2023-12-07T11:01:34;1494.57;;;999.90;;
36653;SDS011;22650;49.350;20.898;2023-12-07T11:04:10;1479.57;;;999.90;;
36653;SDS011;22650;49.350;20.898;2023-12-07T11:06:46;1473.65;;;999.90;;
36653;SDS011;22650;49.350;20.898;2023-12-07T11:09:25;1481.88;;;999.90;;
36653;SDS011;22650;49.350;20.898;2023-12-07T11:12:04;1575.70;;;999.90;;
36653;SDS011;22650;49.350;20.898;2023-12-07T11:14:44;1527.20;;;999.90;;
36653;SDS011;22650;49.350;20.898;2023-12-07T11:17:18;1594.50;;;999.90;;
36653;SDS011;22650;49.350;20.898;2023-12-07T11:19:54;1450.13;;;999.90;;
36653;SDS011;22650;49.350;20.898;2023-12-07T11:22:29;1556.93;;;999.90;;
36653;SDS011;22650;49.350;20.898;2023-12-07T11:25:04;1485.25;;;999.90;;
36653;SDS011;22650;49.350;20.898;2023-12-07T11:27:40;1593.30;;;999.90;;
36653;SDS011;22650;49.350;20.898;2023-12-07T11:30:20;1437.30;;;999.90;;
36653;SDS011;22650;49.350;20.898;2023-12-07T11:32:54;1509.88;;;999.90;;
36653;SDS011;22650;49.350;20.898;2023-12-07T11:35:28;1439.32;;;999.90;;
36653;SDS011;22650;49.350;20.898;2023-12-07T11:38:02;1430.00;;;999.90;;
36653;SDS011;22650;49.350;20.898;2023-12-07T11:40:39;1430.07;;;999.90;;
36653;SDS011;22650;49.350;20.898;2023-12-07T11:43:17;1489.28;;;999.90;;
36653;SDS011;22650;49.350;20.898;2023-12-07T11:46:05;1408.82;;;999.90;;
36653;SDS011;22650;49.350;20.898;2023-12-07T11:48:45;1385.13;;;999.90;;
36653;SDS011;22650;49.350;20.898;2023-12-07T11:51:21;1418.65;;;999.90;;
36653;SDS011;22650;49.350;20.898;2023-12-07T11:53:55;1396.88;;;999.90;;
36653;SDS011;22650;49.350;20.898;2023-12-07T11:56:28;1373.82;;;999.90;;
36653;SDS011;22650;49.350;20.898;2023-12-07T11:59:02;1419.40;;;999.90;;
36653;SDS011;22650;49.350;20.898;2023-12-07T12:01:37;1389.78;;;999.90;;
36653;SDS011;22650;49.350;20.898;2023-12-07T12:04:11;1229.28;;;999.90;;
36653;SDS011;22650;49.350;20.898;2023-12-07T12:06:45;1403.93;;;999.90;;
36653;SDS011;22650;49.350;20.898;2023-12-07T12:09:18;1372.30;;;999.90;;
36653;SDS011;22650;49.350;20.898;2023-12-07T12:12:03;1290.22;;;999.90;;
36653;SDS011;22650;49.350;20.898;2023-12-07T12:14:37;1368.05;;;999.90;;
36653;SDS011;22650;49.350;20.898;2023-12-07T12:17:14;1360.18;;;999.90;;
36653;SDS011;22650;49.350;20.898;2023-12-07T12:19:48;1369.28;;;999.90;;
36653;SDS011;22650;49.350;20.898;2023-12-07T12:22:26;1343.45;;;999.90;;
36653;SDS011;22650;49.350;20.898;2023-12-07T12:25:01;1311.45;;;999.90;;
36653;SDS011;22650;49.350;20.898;2023-12-07T12:27:35;1310.15;;;999.90;;
36653;SDS011;22650;49.350;20.898;2023-12-07T12:30:09;1393.38;;;999.90;;
36653;SDS011;22650;49.350;20.898;2023-12-07T12:32:46;1299.20;;;999.90;;
36653;SDS011;22650;49.350;20.898;2023-12-07T12:35:20;1320.85;;;999.90;;
36653;SDS011;22650;49.350;20.898;2023-12-07T12:37:54;1334.78;;;999.90;;
36653;SDS011;22650;49.350;20.898;2023-12-07T12:40:28;1325.10;;;999.90;;
36653;SDS011;22650;49.350;20.898;2023-12-07T12:43:03;1380.00;;;999.90;;
36653;SDS011;22650;49.350;20.898;2023-12-07T12:45:38;1418.25;;;999.90;;
36653;SDS011;22650;49.350;20.898;2023-12-07T12:48:13;1428.38;;;999.90;;
36653;SDS011;22650;49.350;20.898;2023-12-07T12:50:47;1368.05;;;999.90;;
36653;SDS011;22650;49.350;20.898;2023-12-07T12:53:20;1380.22;;;999.90;;
36653;SDS011;22650;49.350;20.898;2023-12-07T12:55:54;1292.95;;;999.90;;
36653;SDS011;22650;49.350;20.898;2023-12-07T12:58:29;1390.57;;;999.90;;
36653;SDS011;22650;49.350;20.898;2023-12-07T13:01:03;1332.75;;;999.90;;
36653;SDS011;22650;49.350;20.898;2023-12-07T13:03:40;1342.43;;;999.90;;
36653;SDS011;22650;49.350;20.898;2023-12-07T13:06:13;1434.93;;;999.90;;
36653;SDS011;22650;49.350;20.898;2023-12-07T13:08:49;1388.75;;;999.90;;
36653;SDS011;22650;49.350;20.898;2023-12-07T13:11:23;1316.38;;;999.90;;
36653;SDS011;22650;49.350;20.898;2023-12-07T13:13:59;1261.30;;;999.90;;
36653;SDS011;22650;49.350;20.898;2023-12-07T13:16:38;1189.93;;;999.90;;
36653;SDS011;22650;49.350;20.898;2023-12-07T13:19:13;1413.00;;;999.90;;
36653;SDS011;22650;49.350;20.898;2023-12-07T13:21:47;1367.18;;;999.90;;
36653;SDS011;22650;49.350;20.898;2023-12-07T13:24:21;1326.80;;;999.90;;
36653;SDS011;22650;49.350;20.898;2023-12-07T13:26:54;1342.05;;;999.90;;
36653;SDS011;22650;49.350;20.898;2023-12-07T13:29:29;1414.95;;;999.90;;
36653;SDS011;22650;49.350;20.898;2023-12-07T13:32:07;1364.15;;;999.90;;
36653;SDS011;22650;49.350;20.898;2023-12-07T13:34:43;1427.85;;;999.90;;
36653;SDS011;22650;49.350;20.898;2023-12-07T13:37:16;1486.75;;;999.90;;
36653;SDS011;22650;49.350;20.898;2023-12-07T13:39:51;1366.53;;;999.90;;
36653;SDS011;22650;49.350;20.898;2023-12-07T13:42:27;1496.18;;;999.90;;
36653;SDS011;22650;49.350;20.898;2023-12-07T13:45:01;1502.20;;;999.90;;
36653;SDS011;22650;49.350;20.898;2023-12-07T13:47:35;1438.25;;;999.90;;
36653;SDS011;22650;49.350;20.898;2023-12-07T13:50:11;1491.70;;;999.90;;
36653;SDS011;22650;49.350;20.898;2023-12-07T13:52:44;1381.93;;;999.90;;
36653;SDS011;22650;49.350;20.898;2023-12-07T13:55:18;1435.28;;;999.90;;
36653;SDS011;22650;49.350;20.898;2023-12-07T13:57:52;1492.05;;;999.90;;
36653;SDS011;22650;49.350;20.898;2023-12-07T14:00:28;1359.38;;;999.90;;
36653;SDS011;22650;49.350;20.898;2023-12-07T14:03:03;1459.72;;;999.90;;
36653;SDS011;22650;49.350;20.898;2023-12-07T14:05:39;1498.85;;;999.90;;
36653;SDS011;22650;49.350;20.898;2023-12-07T14:08:13;1445.38;;;999.90;;
36653;SDS011;22650;49.350;20.898;2023-12-07T14:10:46;1411.78;;;999.90;;
36653;SDS011;22650;49.350;20.898;2023-12-07T14:13:20;1456.43;;;999.90;;
36653;SDS011;22650;49.350;20.898;2023-12-07T14:15:55;1406.93;;;999.90;;